createdAt,value
2016-04-23T00:00:56.654Z,0
2016-04-23T00:01:56.579Z,0
2016-04-23T00:02:56.675Z,0
2016-04-23T00:03:56.693Z,0
2016-04-23T00:04:56.727Z,0
2016-04-23T00:05:56.746Z,0
2016-04-23T00:06:56.733Z,0
2016-04-23T00:07:56.735Z,0
2016-04-23T00:08:56.738Z,0
2016-04-23T00:09:56.771Z,0
2016-04-23T00:10:56.807Z,0
2016-04-23T00:11:56.621Z,0
2016-04-23T00:12:56.780Z,0
2016-04-23T00:13:56.782Z,0
2016-04-23T00:14:56.770Z,0
2016-04-23T00:15:56.788Z,0
2016-04-23T00:16:56.822Z,0
2016-04-23T00:17:56.793Z,0
2016-04-23T00:18:56.828Z,0
2016-04-23T00:19:56.831Z,0
2016-04-23T00:20:56.833Z,0
2016-04-23T00:21:56.867Z,0
2016-04-23T00:22:56.854Z,0
2016-04-23T00:23:56.841Z,0
2016-04-23T00:24:56.859Z,0
2016-04-23T00:25:56.878Z,0
2016-04-23T00:26:56.880Z,0
2016-04-23T00:27:56.883Z,0
2016-04-23T00:28:56.917Z,0
2016-04-23T00:29:56.888Z,0
2016-04-23T00:30:56.922Z,0
2016-04-23T00:31:56.925Z,0
2016-04-23T00:32:56.944Z,0
2016-04-23T00:33:56.930Z,0
2016-04-23T00:34:56.949Z,0
2016-04-23T00:35:56.952Z,0
2016-04-23T00:36:56.969Z,0
2016-04-23T00:37:57.004Z,0
2016-04-23T00:38:56.960Z,0
2016-04-23T00:39:56.977Z,0
2016-04-23T00:40:56.980Z,0
2016-04-23T00:41:57.015Z,0
2016-04-23T00:42:57.017Z,0
2016-04-23T00:43:57.035Z,0
2016-04-23T00:44:57.023Z,0
2016-04-23T00:45:57.057Z,0
2016-04-23T00:46:57.043Z,0
2016-04-23T00:47:57.046Z,0
2016-04-23T00:48:57.034Z,0
2016-04-23T00:49:56.926Z,0
2016-04-23T00:50:57.054Z,0
2016-04-23T00:51:57.072Z,0
2016-04-23T00:52:57.060Z,0
2016-04-23T00:53:57.078Z,0
2016-04-23T00:54:57.097Z,0
2016-04-23T00:55:57.130Z,0
2016-04-23T00:56:57.102Z,0
2016-04-23T00:57:57.136Z,0
2016-04-23T00:58:57.138Z,0
2016-04-23T00:59:57.141Z,0
2016-04-23T01:00:56.394Z,0
2016-04-23T01:01:57.162Z,0
2016-04-23T01:02:57.164Z,0
2016-04-23T01:03:57.151Z,0
2016-04-23T01:04:57.169Z,0
2016-04-23T01:05:57.189Z,0
2016-04-23T01:06:57.191Z,0
2016-04-23T01:07:57.193Z,0
2016-04-23T01:08:57.181Z,0
2016-04-23T01:09:57.215Z,0
2016-04-23T01:10:57.061Z,0
2016-04-23T01:11:57.251Z,0
2016-04-23T01:12:57.239Z,0
2016-04-23T01:13:57.226Z,0
2016-04-23T01:14:57.243Z,0
2016-04-23T01:15:57.246Z,0
2016-04-23T01:16:57.280Z,0
2016-04-23T01:17:57.284Z,0
2016-04-23T01:18:57.286Z,0
2016-04-23T01:19:57.304Z,0
2016-04-23T01:20:57.276Z,0
2016-04-23T01:21:57.310Z,0
2016-04-23T01:22:57.328Z,0
2016-04-23T01:23:57.330Z,0
2016-04-23T01:24:57.318Z,0
2016-04-23T01:25:57.351Z,0
2016-04-23T01:26:57.339Z,0
2016-04-23T01:27:57.341Z,0
2016-04-23T01:28:57.359Z,0
2016-04-23T01:29:57.362Z,0
2016-04-23T01:30:57.349Z,0
2016-04-23T01:31:57.367Z,0
2016-04-23T01:32:57.386Z,0
2016-04-23T01:33:57.389Z,0
2016-04-23T01:34:57.407Z,0
2016-04-23T01:35:57.394Z,0
2016-04-23T01:36:57.444Z,0
2016-04-23T01:37:57.415Z,0
2016-04-23T01:38:57.418Z,0
2016-04-23T01:39:57.436Z,0
2016-04-23T01:40:57.454Z,0
2016-04-23T01:41:57.457Z,0
2016-04-23T01:42:57.460Z,0
2016-04-23T01:43:57.478Z,0
2016-04-23T01:44:57.481Z,0
2016-04-23T01:45:57.468Z,0
2016-04-23T01:46:57.518Z,0
2016-04-23T01:47:57.489Z,0
2016-04-23T01:48:57.507Z,0
2016-04-23T01:49:57.526Z,0
2016-04-23T01:50:57.528Z,0
2016-04-23T01:51:57.531Z,0
2016-04-23T01:52:57.548Z,0
2016-04-23T01:53:57.537Z,0
2016-04-23T01:54:57.539Z,0
2016-04-23T01:55:57.556Z,0
2016-04-23T01:56:57.576Z,0
2016-04-23T01:57:57.547Z,0
2016-04-23T01:58:57.612Z,0
2016-04-23T01:59:57.599Z,0
2016-04-23T02:00:57.618Z,0
2016-04-23T02:01:57.605Z,0
2016-04-23T02:02:57.482Z,0
2016-04-23T02:03:57.625Z,0
2016-04-23T02:04:57.627Z,0
2016-04-23T02:05:57.475Z,0
2016-04-23T02:06:57.665Z,0
2016-04-23T02:07:57.636Z,0
2016-04-23T02:08:57.671Z,0
2016-04-23T02:09:57.658Z,0
2016-04-23T02:10:57.660Z,0
2016-04-23T02:11:57.709Z,0
2016-04-23T02:12:57.666Z,0
2016-04-23T02:13:57.684Z,0
2016-04-23T02:14:57.702Z,0
2016-04-23T02:15:57.735Z,0
2016-04-23T02:16:57.738Z,0
2016-04-23T02:17:57.710Z,0
2016-04-23T02:18:57.759Z,0
2016-04-23T02:19:57.731Z,0
2016-04-23T02:20:57.749Z,0
2016-04-23T02:21:57.752Z,0
2016-04-23T02:22:57.764Z,0
2016-04-23T02:23:57.783Z,0
2016-04-23T02:24:57.801Z,0
2016-04-23T02:25:57.772Z,0
2016-04-23T02:26:57.806Z,0
2016-04-23T02:27:57.793Z,0
2016-04-23T02:28:57.828Z,0
2016-04-23T02:29:57.846Z,0
2016-04-23T02:30:57.833Z,0
2016-04-23T02:31:57.836Z,0
2016-04-23T02:32:57.557Z,0
2016-04-23T02:33:57.857Z,0
2016-04-23T02:34:57.843Z,0
2016-04-23T02:35:57.877Z,0
2016-04-23T02:36:57.880Z,0
2016-04-23T02:37:57.883Z,0
2016-04-23T02:38:57.901Z,0
2016-04-23T02:39:57.904Z,0
2016-04-23T02:40:57.923Z,0
2016-04-23T02:41:57.909Z,0
2016-04-23T02:42:57.943Z,0
2016-04-23T02:43:57.915Z,0
2016-04-23T02:44:57.934Z,0
2016-04-23T02:45:57.982Z,0
2016-04-23T02:46:57.954Z,0
2016-04-23T02:47:57.957Z,0
2016-04-23T02:48:57.944Z,0
2016-04-23T02:49:57.978Z,0
2016-04-23T02:50:57.980Z,0
2016-04-23T02:51:57.999Z,0
2016-04-23T02:52:57.970Z,0
2016-04-23T02:53:58.019Z,0
2016-04-23T02:54:58.007Z,0
2016-04-23T02:55:58.009Z,0
2016-04-23T02:56:58.012Z,0
2016-04-23T02:57:58.046Z,0
2016-04-23T02:58:58.034Z,0
2016-04-23T02:59:58.052Z,0
2016-04-23T03:00:58.038Z,0
2016-04-23T03:01:58.072Z,0
2016-04-23T03:02:58.075Z,0
2016-04-23T03:03:58.078Z,0
2016-04-23T03:04:58.080Z,0
2016-04-23T03:05:58.099Z,0
2016-04-23T03:06:58.102Z,0
2016-04-23T03:07:58.120Z,0
2016-04-23T03:08:58.107Z,0
2016-04-23T03:09:58.141Z,0
2016-04-23T03:10:58.129Z,0
2016-04-23T03:11:58.131Z,0
2016-04-23T03:12:58.133Z,0
2016-04-23T03:13:58.152Z,0
2016-04-23T03:14:58.170Z,0
2016-04-23T03:15:58.172Z,0
2016-04-23T03:16:58.160Z,0
2016-04-23T03:17:58.053Z,0
2016-04-23T03:18:58.196Z,0
2016-04-23T03:19:58.199Z,0
2016-04-23T03:20:58.218Z,0
2016-04-23T03:21:58.220Z,0
2016-04-23T03:22:58.207Z,0
2016-04-23T03:23:58.209Z,0
2016-04-23T03:24:58.244Z,0
2016-04-23T03:25:58.230Z,0
2016-04-23T03:26:58.264Z,0
2016-04-23T03:27:58.268Z,0
2016-04-23T03:28:58.255Z,0
2016-04-23T03:29:58.289Z,0
2016-04-23T03:30:58.307Z,0
2016-04-23T03:31:58.294Z,0
2016-04-23T03:32:58.313Z,0
2016-04-23T03:33:58.315Z,0
2016-04-23T03:34:58.318Z,0
2016-04-23T03:35:58.321Z,0
2016-04-23T03:36:58.324Z,0
2016-04-23T03:37:58.341Z,0
2016-04-23T03:38:58.360Z,0
2016-04-23T03:39:58.347Z,0
2016-04-23T03:40:58.365Z,0
2016-04-23T03:41:58.367Z,0
2016-04-23T03:42:58.370Z,0
2016-04-23T03:43:58.374Z,0
2016-04-23T03:44:58.407Z,0
2016-04-23T03:45:58.379Z,0
2016-04-23T03:46:58.381Z,0
2016-04-23T03:47:58.259Z,0
2016-04-23T03:48:58.434Z,0
2016-04-23T03:49:58.436Z,0
2016-04-23T03:50:58.439Z,0
2016-04-23T03:51:58.442Z,0
2016-04-23T03:52:58.476Z,0
2016-04-23T03:53:58.462Z,0
2016-04-23T03:54:58.481Z,0
2016-04-23T03:55:58.456Z,0
2016-04-23T03:56:58.490Z,0
2016-04-23T03:57:58.493Z,0
2016-04-23T03:58:58.510Z,0
2016-04-23T03:59:58.499Z,0
2016-04-23T04:00:58.515Z,0
2016-04-23T04:01:57.769Z,0
2016-04-23T04:02:58.522Z,0
2016-04-23T04:03:58.540Z,0
2016-04-23T04:04:58.558Z,0
2016-04-23T04:05:58.561Z,0
2016-04-23T04:06:58.548Z,0
2016-04-23T04:07:58.551Z,0
2016-04-23T04:08:58.570Z,0
2016-04-23T04:09:58.587Z,0
2016-04-23T04:10:58.574Z,4
2016-04-23T04:11:58.593Z,4
2016-04-23T04:12:58.580Z,4
2016-04-23T04:13:58.614Z,4
2016-04-23T04:14:58.601Z,4
2016-04-23T04:15:58.681Z,4
2016-04-23T04:16:58.638Z,4
2016-04-23T04:17:58.656Z,4
2016-04-23T04:18:58.643Z,4
2016-04-23T04:19:58.646Z,4
2016-04-23T04:20:58.679Z,4
2016-04-23T04:21:58.682Z,8
2016-04-23T04:22:58.669Z,8
2016-04-23T04:23:58.688Z,4
2016-04-23T04:24:58.691Z,8
2016-04-23T04:25:58.708Z,8
2016-04-23T04:26:58.696Z,12
2016-04-23T04:27:58.713Z,8
2016-04-23T04:28:58.701Z,12
2016-04-23T04:29:58.735Z,12
2016-04-23T04:30:58.722Z,12
2016-04-23T04:31:58.757Z,16
2016-04-23T04:32:58.837Z,12
2016-04-23T04:33:58.777Z,16
2016-04-23T04:34:58.779Z,16
2016-04-23T04:35:58.767Z,20
2016-04-23T04:36:58.769Z,16
2016-04-23T04:37:58.787Z,20
2016-04-23T04:38:58.790Z,20
2016-04-23T04:39:58.809Z,16
2016-04-23T04:40:58.828Z,20
2016-04-23T04:41:58.814Z,20
2016-04-23T04:42:58.817Z,24
2016-04-23T04:43:58.866Z,24
2016-04-23T04:44:58.838Z,20
2016-04-23T04:45:58.872Z,24
2016-04-23T04:46:58.844Z,24
2016-04-23T04:47:58.878Z,24
2016-04-23T04:48:58.864Z,28
2016-04-23T04:49:58.898Z,24
2016-04-23T04:50:58.135Z,24
2016-04-23T04:51:58.903Z,28
2016-04-23T04:52:58.905Z,28
2016-04-23T04:53:58.908Z,28
2016-04-23T04:54:58.911Z,28
2016-04-23T04:55:58.930Z,32
2016-04-23T04:56:58.933Z,28
2016-04-23T04:57:58.935Z,28
2016-04-23T04:58:58.938Z,32
2016-04-23T04:59:58.940Z,32
2016-04-23T05:00:58.959Z,36
2016-04-23T05:01:58.946Z,32
2016-04-23T05:02:58.980Z,36
2016-04-23T05:03:58.983Z,36
2016-04-23T05:04:59.001Z,36
2016-04-23T05:05:59.004Z,40
2016-04-23T05:06:59.006Z,40
2016-04-23T05:07:59.026Z,40
2016-04-23T05:08:59.042Z,40
2016-04-23T05:09:59.014Z,40
2016-04-23T05:10:59.033Z,40
2016-04-23T05:11:59.051Z,40
2016-04-23T05:12:59.069Z,40
2016-04-23T05:13:59.056Z,40
2016-04-23T05:14:59.075Z,36
2016-04-23T05:15:59.062Z,40
2016-04-23T05:16:59.095Z,40
2016-04-23T05:17:59.067Z,40
2016-04-23T05:18:59.101Z,44
2016-04-23T05:19:59.104Z,40
2016-04-23T05:20:59.122Z,40
2016-04-23T05:21:59.125Z,44
2016-04-23T05:22:59.143Z,44
2016-04-23T05:23:59.130Z,44
2016-04-23T05:24:59.132Z,48
2016-04-23T05:25:59.151Z,48
2016-04-23T05:26:59.154Z,52
2016-04-23T05:27:59.172Z,52
2016-04-23T05:28:59.191Z,52
2016-04-23T05:29:59.162Z,56
2016-04-23T05:30:59.180Z,56
2016-04-23T05:31:59.167Z,56
2016-04-23T05:32:59.263Z,60
2016-04-23T05:33:59.188Z,60
2016-04-23T05:34:59.223Z,64
2016-04-23T05:35:59.256Z,64
2016-04-23T05:36:59.228Z,68
2016-04-23T05:37:59.246Z,68
2016-04-23T05:38:59.264Z,72
2016-04-23T05:39:59.282Z,72
2016-04-23T05:40:59.254Z,72
2016-04-23T05:41:59.273Z,76
2016-04-23T05:42:59.275Z,76
2016-04-23T05:43:59.293Z,80
2016-04-23T05:44:59.296Z,80
2016-04-23T05:45:59.283Z,76
2016-04-23T05:46:59.317Z,76
2016-04-23T05:47:59.319Z,72
2016-04-23T05:48:59.323Z,72
2016-04-23T05:49:59.325Z,72
2016-04-23T05:50:59.344Z,72
2016-04-23T05:51:59.331Z,68
2016-04-23T05:52:59.364Z,68
2016-04-23T05:53:59.352Z,68
2016-04-23T05:54:59.354Z,68
2016-04-23T05:55:59.372Z,68
2016-04-23T05:56:59.391Z,68
2016-04-23T05:57:59.409Z,68
2016-04-23T05:58:59.396Z,64
2016-04-23T05:59:59.415Z,68
2016-04-23T06:00:59.433Z,68
2016-04-23T06:01:59.404Z,68
2016-04-23T06:02:59.454Z,72
2016-04-23T06:03:59.425Z,76
2016-04-23T06:04:59.444Z,80
2016-04-23T06:05:58.712Z,80
2016-04-23T06:06:59.465Z,88
2016-04-23T06:07:59.452Z,92
2016-04-23T06:08:59.485Z,96
2016-04-23T06:09:59.473Z,100
2016-04-23T06:10:59.475Z,100
2016-04-23T06:11:59.493Z,100
2016-04-23T06:12:59.512Z,104
2016-04-23T06:13:59.530Z,104
2016-04-23T06:14:59.517Z,104
2016-04-23T06:15:59.536Z,108
2016-04-23T06:16:59.523Z,104
2016-04-23T06:17:59.556Z,108
2016-04-23T06:18:59.528Z,112
2016-04-23T06:19:59.561Z,108
2016-04-23T06:20:59.550Z,112
2016-04-23T06:21:59.584Z,112
2016-04-23T06:22:59.570Z,112
2016-04-23T06:23:59.605Z,116
2016-04-23T06:24:59.591Z,112
2016-04-23T06:25:59.594Z,112
2016-04-23T06:26:59.612Z,112
2016-04-23T06:27:59.615Z,112
2016-04-23T06:28:59.633Z,116
2016-04-23T06:29:59.636Z,112
2016-04-23T06:30:59.638Z,116
2016-04-23T06:31:59.626Z,120
2016-04-23T06:32:59.644Z,120
2016-04-23T06:33:59.677Z,124
2016-04-23T06:34:59.649Z,128
2016-04-23T06:35:59.714Z,132
2016-04-23T06:36:59.515Z,136
2016-04-23T06:37:59.705Z,144
2016-04-23T06:38:59.723Z,152
2016-04-23T06:39:59.694Z,156
2016-04-23T06:40:59.712Z,160
2016-04-23T06:41:59.762Z,168
2016-04-23T06:42:59.717Z,172
2016-04-23T06:43:59.736Z,180
2016-04-23T06:44:59.739Z,184
2016-04-23T06:45:59.742Z,196
2016-04-23T06:46:59.775Z,204
2016-04-23T06:47:59.778Z,220
2016-04-23T06:48:59.797Z,228
2016-04-23T06:49:59.783Z,240
2016-04-23T06:50:59.802Z,252
2016-04-23T06:51:59.804Z,264
2016-04-23T06:52:59.808Z,276
2016-04-23T06:53:59.842Z,288
2016-04-23T06:54:59.828Z,296
2016-04-23T06:55:59.831Z,308
2016-04-23T06:56:59.833Z,316
2016-04-23T06:57:59.836Z,324
2016-04-23T06:58:59.839Z,332
2016-04-23T06:59:59.872Z,340
2016-04-23T07:00:59.891Z,348
2016-04-23T07:01:59.878Z,348
2016-04-23T07:02:59.897Z,348
2016-04-23T07:03:59.899Z,348
2016-04-23T07:04:59.902Z,348
2016-04-23T07:05:59.920Z,348
2016-04-23T07:06:59.907Z,348
2016-04-23T07:07:59.987Z,344
2016-04-23T07:08:59.944Z,340
2016-04-23T07:09:59.963Z,340
2016-04-23T07:10:59.918Z,348
2016-04-23T07:11:59.952Z,348
2016-04-23T07:12:59.954Z,348
2016-04-23T07:13:59.989Z,348
2016-04-23T07:15:00.007Z,348
2016-04-23T07:15:59.978Z,348
2016-04-23T07:17:00.012Z,348
2016-04-23T07:18:00.015Z,348
2016-04-23T07:19:00.003Z,348
2016-04-23T07:20:00.020Z,344
2016-04-23T07:21:00.023Z,340
2016-04-23T07:22:00.041Z,336
2016-04-23T07:23:00.028Z,332
2016-04-23T07:24:00.062Z,328
2016-04-23T07:25:00.050Z,320
2016-04-23T07:26:01.739Z,316
2016-04-23T07:27:00.039Z,308
2016-04-23T07:27:59.932Z,300
2016-04-23T07:29:00.075Z,300
2016-04-23T07:30:00.125Z,292
2016-04-23T07:31:03.863Z,292
2016-04-23T07:32:00.130Z,292
2016-04-23T07:33:00.102Z,292
2016-04-23T07:34:00.105Z,296
2016-04-23T07:35:00.138Z,300
2016-04-23T07:36:00.157Z,304
2016-04-23T07:37:00.410Z,308
2016-04-23T07:38:00.147Z,316
2016-04-23T07:39:00.181Z,316
2016-04-23T07:40:00.168Z,320
2016-04-23T07:41:03.498Z,324
2016-04-23T07:42:00.205Z,320
2016-04-23T07:43:00.299Z,324
2016-04-23T07:44:00.315Z,324
2016-04-23T07:45:00.377Z,324
2016-04-23T07:46:02.095Z,328
2016-04-23T07:47:00.433Z,328
2016-04-23T07:48:00.514Z,328
2016-04-23T07:49:00.502Z,328
2016-04-23T07:50:00.521Z,332
2016-04-23T07:51:02.852Z,332
2016-04-23T07:52:00.582Z,332
2016-04-23T07:53:00.590Z,336
2016-04-23T07:54:00.599Z,340
2016-04-23T07:55:00.607Z,340
2016-04-23T07:56:00.599Z,344
2016-04-23T07:57:00.637Z,344
2016-04-23T07:58:00.626Z,344
2016-04-23T07:59:14.838Z,352
2016-04-23T08:00:00.682Z,356
2016-04-23T08:01:02.593Z,360
2016-04-23T08:02:00.690Z,364
2016-04-23T08:03:00.677Z,372
2016-04-23T08:04:00.682Z,380
2016-04-23T08:05:00.857Z,384
2016-04-23T08:06:02.377Z,392
2016-04-23T08:07:00.723Z,396
2016-04-23T08:08:00.727Z,408
2016-04-23T08:09:00.730Z,416
2016-04-23T08:10:00.716Z,420
2016-04-23T08:11:00.751Z,428
2016-04-23T08:12:00.784Z,432
2016-04-23T08:13:00.787Z,436
2016-04-23T08:14:00.822Z,444
2016-04-23T08:15:00.793Z,448
2016-04-23T08:16:00.795Z,456
2016-04-23T08:17:00.798Z,464
2016-04-23T08:18:00.800Z,472
2016-04-23T08:19:00.820Z,476
2016-04-23T08:20:00.822Z,484
2016-04-23T08:21:00.824Z,488
2016-04-23T08:22:00.858Z,492
2016-04-23T08:23:00.861Z,492
2016-04-23T08:24:00.864Z,492
2016-04-23T08:25:00.866Z,488
2016-04-23T08:26:00.870Z,480
2016-04-23T08:27:00.888Z,480
2016-04-23T08:28:00.953Z,476
2016-04-23T08:29:00.877Z,480
2016-04-23T08:30:00.901Z,476
2016-04-23T08:31:01.840Z,472
2016-04-23T08:32:00.907Z,472
2016-04-23T08:33:00.924Z,468
2016-04-23T08:34:00.662Z,464
2016-04-23T08:35:00.914Z,460
2016-04-23T08:36:03.995Z,456
2016-04-23T08:37:00.967Z,456
2016-04-23T08:38:00.969Z,452
2016-04-23T08:39:00.957Z,452
2016-04-23T08:40:00.990Z,452
2016-04-23T08:41:01.945Z,452
2016-04-23T08:42:00.996Z,448
2016-04-23T08:43:00.998Z,444
2016-04-23T08:44:01.016Z,440
2016-04-23T08:45:01.004Z,436
2016-04-23T08:46:03.866Z,428
2016-04-23T08:47:01.024Z,420
2016-04-23T08:48:01.027Z,416
2016-04-23T08:49:00.968Z,412
2016-04-23T08:50:01.392Z,408
2016-04-23T08:51:04.488Z,408
2016-04-23T08:52:01.086Z,408
2016-04-23T08:53:01.088Z,412
2016-04-23T08:54:01.090Z,420
2016-04-23T08:55:01.093Z,428
2016-04-23T08:56:02.721Z,436
2016-04-23T08:57:01.099Z,444
2016-04-23T08:58:01.133Z,444
2016-04-23T08:59:01.135Z,444
2016-04-23T09:00:01.138Z,440
2016-04-23T09:01:04.343Z,436
2016-04-23T09:02:01.159Z,440
2016-04-23T09:03:01.162Z,440
2016-04-23T09:04:01.039Z,444
2016-04-23T09:05:01.167Z,448
2016-04-23T09:06:03.998Z,456
2016-04-23T09:07:01.204Z,456
2016-04-23T09:08:01.206Z,456
2016-04-23T09:09:01.225Z,456
2016-04-23T09:10:01.242Z,456
2016-04-23T09:11:03.323Z,456
2016-04-23T09:12:01.264Z,452
2016-04-23T09:13:01.220Z,452
2016-04-23T09:14:01.253Z,448
2016-04-23T09:15:01.241Z,448
2016-04-23T09:16:01.275Z,444
2016-04-23T09:17:01.277Z,444
2016-04-23T09:18:01.280Z,448
2016-04-23T09:19:01.189Z,444
2016-04-23T09:20:01.317Z,444
2016-04-23T09:21:01.303Z,440
2016-04-23T09:22:01.322Z,444
2016-04-23T09:23:01.324Z,448
2016-04-23T09:24:01.311Z,448
2016-04-23T09:25:01.314Z,452
2016-04-23T09:26:03.864Z,456
2016-04-23T09:27:01.195Z,456
2016-04-23T09:28:01.354Z,456
2016-04-23T09:29:01.528Z,456
2016-04-23T09:30:01.391Z,456
2016-04-23T09:31:03.393Z,452
2016-04-23T09:32:01.255Z,448
2016-04-23T09:33:01.743Z,448
2016-04-23T09:34:01.557Z,452
2016-04-23T09:35:02.482Z,460
2016-04-23T09:36:06.782Z,476
2016-04-23T09:37:01.425Z,496
2016-04-23T09:38:01.443Z,520
2016-04-23T09:39:01.445Z,548
2016-04-23T09:40:01.370Z,568
2016-04-23T09:41:13.123Z,592
2016-04-23T09:42:01.439Z,616
2016-04-23T09:43:01.519Z,632
2016-04-23T09:44:01.506Z,652
2016-04-23T09:45:02.853Z,668
2016-04-23T09:46:04.261Z,672
2016-04-23T09:47:01.530Z,676
2016-04-23T09:48:01.501Z,680
2016-04-23T09:49:01.520Z,672
2016-04-23T09:50:01.523Z,676
2016-04-23T09:51:04.603Z,668
2016-04-23T09:52:01.544Z,664
2016-04-23T09:53:01.546Z,656
2016-04-23T09:54:01.580Z,648
2016-04-23T09:55:01.567Z,644
2016-04-23T09:56:01.585Z,636
2016-04-23T09:57:01.604Z,636
2016-04-23T09:58:01.622Z,636
2016-04-23T09:59:01.640Z,628
2016-04-23T10:00:01.643Z,628
2016-04-23T10:01:02.005Z,624
2016-04-23T10:02:01.618Z,628
2016-04-23T10:03:01.652Z,628
2016-04-23T10:04:01.623Z,632
2016-04-23T10:05:01.656Z,632
2016-04-23T10:06:02.596Z,636
2016-04-23T10:07:01.677Z,644
2016-04-23T10:08:01.384Z,648
2016-04-23T10:09:01.745Z,656
2016-04-23T10:10:01.685Z,672
2016-04-23T10:11:01.704Z,684
2016-04-23T10:12:01.659Z,692
2016-04-23T10:13:01.912Z,700
2016-04-23T10:14:01.743Z,708
2016-04-23T10:15:01.730Z,720
2016-04-23T10:16:02.639Z,724
2016-04-23T10:17:01.751Z,732
2016-04-23T10:18:01.753Z,736
2016-04-23T10:19:03.459Z,740
2016-04-23T10:20:01.556Z,736
2016-04-23T10:21:01.809Z,732
2016-04-23T10:22:01.639Z,736
2016-04-23T10:23:02.001Z,744
2016-04-23T10:24:01.820Z,760
2016-04-23T10:25:01.808Z,776
2016-04-23T10:26:01.825Z,792
2016-04-23T10:27:01.844Z,808
2016-04-23T10:28:01.830Z,816
2016-04-23T10:29:01.849Z,824
2016-04-23T10:30:01.883Z,820
2016-04-23T10:31:01.869Z,800
2016-04-23T10:32:01.888Z,788
2016-04-23T10:33:01.875Z,784
2016-04-23T10:34:02.691Z,788
2016-04-23T10:35:01.990Z,784
2016-04-23T10:36:01.915Z,772
2016-04-23T10:37:01.901Z,744
2016-04-23T10:38:01.935Z,692
2016-04-23T10:39:01.923Z,660
2016-04-23T10:40:01.956Z,648
2016-04-23T10:41:01.959Z,644
2016-04-23T10:42:01.962Z,640
2016-04-23T10:43:01.949Z,636
2016-04-23T10:44:01.967Z,632
2016-04-23T10:45:02.001Z,604
2016-04-23T10:46:01.989Z,576
2016-04-23T10:47:02.007Z,544
2016-04-23T10:48:02.025Z,504
2016-04-23T10:49:02.606Z,464
2016-04-23T10:50:03.171Z,440
2016-04-23T10:51:02.034Z,436
2016-04-23T10:52:02.051Z,448
2016-04-23T10:53:02.039Z,484
2016-04-23T10:54:02.072Z,544
2016-04-23T10:55:02.060Z,604
2016-04-23T10:56:02.078Z,672
2016-04-23T10:57:02.080Z,720
2016-04-23T10:58:02.099Z,740
2016-04-23T10:59:02.117Z,720
2016-04-23T11:00:02.089Z,704
2016-04-23T11:01:02.091Z,688
2016-04-23T11:02:02.110Z,688
2016-04-23T11:03:02.143Z,692
2016-04-23T11:04:02.130Z,700
2016-04-23T11:05:02.821Z,724
2016-04-23T11:06:02.136Z,756
2016-04-23T11:07:02.171Z,788
2016-04-23T11:08:02.188Z,820
2016-04-23T11:09:02.176Z,844
2016-04-23T11:10:01.474Z,836
2016-04-23T11:11:02.181Z,828
2016-04-23T11:12:02.215Z,836
2016-04-23T11:13:02.202Z,844
2016-04-23T11:14:02.221Z,860
2016-04-23T11:15:02.237Z,892
2016-04-23T11:16:02.240Z,900
2016-04-23T11:17:02.243Z,900
2016-04-23T11:18:02.512Z,876
2016-04-23T11:19:02.265Z,772
2016-04-23T11:20:03.143Z,672
2016-04-23T11:21:02.301Z,596
2016-04-23T11:22:02.273Z,520
2016-04-23T11:23:02.291Z,480
2016-04-23T11:24:02.294Z,460
2016-04-23T11:25:02.297Z,440
2016-04-23T11:26:02.346Z,424
2016-04-23T11:27:02.333Z,392
2016-04-23T11:28:02.336Z,364
2016-04-23T11:29:02.339Z,360
2016-04-23T11:30:02.341Z,380
2016-04-23T11:31:02.344Z,408
2016-04-23T11:32:02.363Z,424
2016-04-23T11:33:02.380Z,444
2016-04-23T11:34:02.368Z,456
2016-04-23T11:35:02.433Z,448
2016-04-23T11:36:02.420Z,448
2016-04-23T11:37:02.438Z,456
2016-04-23T11:38:02.425Z,464
2016-04-23T11:39:02.444Z,476
2016-04-23T11:40:02.415Z,492
2016-04-23T11:41:02.433Z,528
2016-04-23T11:42:02.420Z,572
2016-04-23T11:43:02.470Z,632
2016-04-23T11:44:02.457Z,712
2016-04-23T11:45:02.476Z,772
2016-04-23T11:46:02.479Z,764
2016-04-23T11:47:02.496Z,728
2016-04-23T11:48:02.498Z,672
2016-04-23T11:49:02.502Z,636
2016-04-23T11:50:03.520Z,564
2016-04-23T11:51:02.554Z,548
2016-04-23T11:52:02.526Z,540
2016-04-23T11:53:02.529Z,584
2016-04-23T11:54:02.578Z,632
2016-04-23T11:55:02.549Z,688
2016-04-23T11:56:02.583Z,660
2016-04-23T11:57:02.601Z,640
2016-04-23T11:58:02.589Z,620
2016-04-23T11:59:02.606Z,568
2016-04-23T12:00:02.609Z,536
2016-04-23T12:01:02.612Z,512
2016-04-23T12:02:02.600Z,496
2016-04-23T12:03:02.633Z,504
2016-04-23T12:04:02.652Z,536
2016-04-23T12:05:02.763Z,592
2016-04-23T12:06:02.657Z,668
2016-04-23T12:07:02.644Z,720
2016-04-23T12:08:02.663Z,760
2016-04-23T12:09:02.649Z,708
2016-04-23T12:10:02.715Z,660
2016-04-23T12:11:02.686Z,656
2016-04-23T12:12:02.704Z,656
2016-04-23T12:13:02.723Z,664
2016-04-23T12:14:02.709Z,668
2016-04-23T12:15:02.743Z,672
2016-04-23T12:16:02.746Z,668
2016-04-23T12:17:02.734Z,668
2016-04-23T12:18:02.751Z,676
2016-04-23T12:19:02.770Z,688
2016-04-23T12:20:03.006Z,696
2016-04-23T12:21:02.760Z,708
2016-04-23T12:22:02.793Z,704
2016-04-23T12:23:02.765Z,700
2016-04-23T12:24:02.783Z,672
2016-04-23T12:25:02.801Z,652
2016-04-23T12:26:02.820Z,640
2016-04-23T12:27:02.839Z,644
2016-04-23T12:28:02.857Z,672
2016-04-23T12:29:02.844Z,692
2016-04-23T12:30:02.846Z,688
2016-04-23T12:31:02.864Z,676
2016-04-23T12:32:02.883Z,672
2016-04-23T12:33:02.870Z,664
2016-04-23T12:34:02.873Z,656
2016-04-23T12:35:03.469Z,656
2016-04-23T12:36:02.910Z,660
2016-04-23T12:37:02.913Z,696
2016-04-23T12:38:02.915Z,732
2016-04-23T12:39:02.918Z,784
2016-04-23T12:40:02.951Z,828
2016-04-23T12:41:02.923Z,852
2016-04-23T12:42:02.957Z,856
2016-04-23T12:43:02.960Z,844
2016-04-23T12:44:02.993Z,828
2016-04-23T12:45:02.965Z,828
2016-04-23T12:46:02.999Z,820
2016-04-23T12:47:02.971Z,796
2016-04-23T12:48:02.988Z,764
2016-04-23T12:49:03.007Z,748
2016-04-23T12:50:04.009Z,736
2016-04-23T12:51:03.012Z,756
2016-04-23T12:52:03.046Z,720
2016-04-23T12:53:03.049Z,592
2016-04-23T12:54:03.067Z,512
2016-04-23T12:55:03.054Z,476
2016-04-23T12:56:03.073Z,468
2016-04-23T12:57:03.075Z,452
2016-04-23T12:58:03.109Z,412
2016-04-23T12:59:03.080Z,392
2016-04-23T13:00:03.114Z,372
2016-04-23T13:01:03.102Z,348
2016-04-23T13:02:03.105Z,320
2016-04-23T13:03:02.950Z,288
2016-04-23T13:04:03.141Z,264
2016-04-23T13:05:03.955Z,244
2016-04-23T13:06:03.177Z,232
2016-04-23T13:07:09.476Z,212
2016-04-23T13:08:03.181Z,208
2016-04-23T13:09:03.169Z,204
2016-04-23T13:10:03.187Z,208
2016-04-23T13:11:03.205Z,212
2016-04-23T13:12:03.192Z,216
2016-04-23T13:13:03.211Z,216
2016-04-23T13:14:03.198Z,216
2016-04-23T13:15:03.233Z,216
2016-04-23T13:16:03.235Z,216
2016-04-23T13:17:03.237Z,228
2016-04-23T13:18:03.287Z,240
2016-04-23T13:19:03.243Z,244
2016-04-23T13:20:04.043Z,248
2016-04-23T13:21:04.357Z,252
2016-04-23T13:22:03.287Z,244
2016-04-23T13:23:03.321Z,240
2016-04-23T13:24:03.308Z,244
2016-04-23T13:25:03.295Z,244
2016-04-23T13:26:03.329Z,240
2016-04-23T13:27:03.176Z,228
2016-04-23T13:28:03.319Z,224
2016-04-23T13:29:03.352Z,220
2016-04-23T13:30:03.339Z,220
2016-04-23T13:31:03.373Z,220
2016-04-23T13:32:03.361Z,224
2016-04-23T13:33:03.378Z,228
2016-04-23T13:34:03.367Z,232
2016-04-23T13:35:03.572Z,236
2016-04-23T13:36:03.230Z,244
2016-04-23T13:37:03.406Z,256
2016-04-23T13:38:03.408Z,268
2016-04-23T13:39:03.410Z,280
2016-04-23T13:40:03.461Z,292
2016-04-23T13:41:03.464Z,292
2016-04-23T13:42:03.467Z,288
2016-04-23T13:43:03.469Z,284
2016-04-23T13:44:03.487Z,272
2016-04-23T13:45:03.489Z,260
2016-04-23T13:46:03.477Z,252
2016-04-23T13:47:03.527Z,252
2016-04-23T13:48:03.498Z,248
2016-04-23T13:49:03.500Z,248
2016-04-23T13:50:03.519Z,244
2016-04-23T13:51:03.256Z,240
2016-04-23T13:52:03.525Z,236
2016-04-23T13:53:03.543Z,232
2016-04-23T13:54:03.561Z,228
2016-04-23T13:55:03.564Z,232
2016-04-23T13:56:03.566Z,232
2016-04-23T13:57:03.585Z,232
2016-04-23T13:58:03.572Z,244
2016-04-23T13:59:03.621Z,256
2016-04-23T14:00:03.593Z,268
2016-04-23T14:01:03.627Z,272
2016-04-23T14:02:03.614Z,276
2016-04-23T14:03:03.632Z,280
2016-04-23T14:04:03.635Z,284
2016-04-23T14:05:03.388Z,296
2016-04-23T14:06:03.640Z,296
2016-04-23T14:07:03.674Z,292
2016-04-23T14:08:03.677Z,292